Latest Weather Observations for Gympie

IDQ60801

Issued at 1:02 pm EST Thursday 5 May 2016 (issued every 30 minutes, with the page automatically refreshed every 10 minutes)

About weather observations | Map of weather stations | Latest weather observations for QLD | Other Formats
Station Details ID: 040093 Name: GYMPIE Lat: -26.18 Lon: 152.64 Height: 64.5 m
Data from the previous 72 hours. | See also: Recent months at Gympie
Date/Time
EST
Temp
°C
App
Temp
°C
Dew
Point
Rel
Hum
%
Delta-T
°C
Wind Press
QNH
hPa
Press
MSL
hPa
Rain
since 9 am
mm
Dir
 
Spd
km/h
Gust
km/h
Spd
kts
Gust
kts
05/01:00pm 26.2 26.5 15.0 50 6.8 SE 7 11 4 6 1017.5 1017.4 0.0
05/12:30pm 25.8 26.1 14.9 51 6.6 SE 7 13 4 7 1018.1 1018.0 0.0
05/12:00pm 25.5 26.3 15.8 55 5.9 SSW 6 9 3 5 1018.6 1018.5 0.0
05/11:30am 25.8 26.7 16.6 56 5.7 SE 7 15 4 8 1019.1 1019.0 0.0
05/11:00am 24.7 26.5 17.4 64 4.5 ESE 4 7 2 4 1019.7 1019.6 0.0
05/10:30am 24.5 26.2 18.0 67 4.1 SSE 6 11 3 6 1020.0 1019.9 0.0
05/10:00am 23.3 24.7 17.7 71 3.5 SSE 7 11 4 6 1020.2 1020.1 0.0
05/09:30am 21.6 23.8 17.4 77 2.6 SE 2 4 1 2 1020.5 1020.4 0.0
05/09:00am 19.6 21.8 16.6 83 1.8 CALM 0 0 0 0 1020.7 1020.6 5.4
05/08:30am 16.8 18.6 15.5 92 0.8 CALM 0 0 0 0 1020.7 1020.6 5.4
05/08:00am 14.7 16.1 14.4 98 0.2 CALM 0 0 0 0 1020.5 1020.4 5.4
05/07:30am 13.7 14.8 13.5 99 0.1 CALM 0 0 0 0 1020.1 1020.0 5.4
05/07:00am 12.1 12.7 11.9 99 0.1 CALM 0 0 0 0 1019.8 1019.7 5.4
05/06:30am 11.4 11.8 11.1 98 0.2 CALM 0 0 0 0 1019.5 1019.4 5.4
05/06:00am 11.8 12.3 11.6 99 0.1 CALM 0 0 0 0 1019.0 1018.9 5.4
05/05:30am 12.2 12.8 12.0 99 0.1 CALM 0 0 0 0 1018.7 1018.6 5.4
05/05:00am 12.1 12.7 11.8 98 0.2 CALM 0 0 0 0 1018.4 1018.3 5.4
05/04:30am 12.6 13.3 12.3 98 0.2 CALM 0 0 0 0 1018.2 1018.1 5.2
05/04:00am 12.4 13.1 12.1 98 0.2 CALM 0 0 0 0 1018.0 1017.9 4.8
05/03:30am 12.7 13.5 12.4 98 0.2 CALM 0 0 0 0 1017.8 1017.7 4.6
05/03:00am 12.9 13.7 12.4 97 0.3 CALM 0 0 0 0 1017.7 1017.6 4.2
05/02:30am 13.0 13.8 12.5 97 0.3 CALM 0 0 0 0 1017.8 1017.7 3.8
05/02:00am 13.3 13.8 12.8 97 0.3 N 2 4 1 2 1017.9 1017.8 3.2
05/01:30am 13.6 14.5 12.8 95 0.4 CALM 0 0 0 0 1017.9 1017.8 3.0
05/01:00am 14.1 14.9 13.6 97 0.3 N 2 4 1 2 1018.1 1018.0 2.6
05/12:30am 14.4 15.6 13.8 96 0.3 CALM 0 2 0 1 1018.3 1018.2 2.4
05/12:00am 14.0 15.0 13.2 95 0.4 CALM 0 0 0 0 1018.4 1018.3 2.2
 
Date/Time
EST
Temp
°C
App
Temp
°C
Dew
Point
Rel
Hum
%
Delta-T
°C
Wind Press
QNH
hPa
Press
MSL
hPa
Rain
since 9 am
mm
Dir
 
Spd
km/h
Gust
km/h
Spd
kts
Gust
kts
04/11:30pm 14.7 16.0 14.1 96 0.3 CALM 0 0 0 0 1018.8 1018.7 2.2
04/11:00pm 14.9 16.1 13.9 94 0.6 CALM 0 0 0 0 1018.8 1018.7 2.0
04/10:30pm 15.5 16.8 14.2 92 0.7 CALM 0 0 0 0 1019.0 1018.9 1.8
04/10:00pm 15.7 17.0 14.1 90 0.9 CALM 0 0 0 0 1019.0 1018.9 1.8
04/09:30pm 16.3 17.7 14.5 89 1.0 CALM 0 0 0 0 1019.0 1018.9 1.6
04/09:00pm 16.5 17.9 14.3 87 1.3 CALM 0 0 0 0 1018.9 1018.8 1.6
04/08:30pm 17.2 18.8 15.0 87 1.3 CALM 0 0 0 0 1018.6 1018.5 1.6
04/08:00pm 17.6 19.2 15.0 85 1.5 CALM 0 0 0 0 1018.3 1018.2 1.6
04/07:30pm 18.8 20.2 14.3 75 2.6 CALM 0 0 0 0 1017.9 1017.8 1.6
04/07:00pm 19.9 21.2 14.0 69 3.4 CALM 0 0 0 0 1017.5 1017.4 1.4
04/06:30pm 20.4 20.8 13.8 66 3.8 SE 4 6 2 3 1016.9 1016.8 1.4
04/06:00pm 21.9 22.0 13.8 60 4.7 ESE 6 11 3 6 1016.4 1016.3 1.4
04/05:30pm 22.9 22.7 14.7 60 4.9 E 9 17 5 9 1015.7 1015.6 1.4
04/05:00pm 24.9 23.4 11.8 44 7.5 ESE 11 19 6 10 1015.2 1015.1 1.2
04/04:30pm 26.5 26.0 12.5 41 8.1 ESE 7 11 4 6 1014.8 1014.7 1.2
04/04:00pm 26.9 26.2 11.4 38 8.9 SSE 6 9 3 5 1014.5 1014.4 1.2
04/03:30pm 27.1 26.6 12.0 39 8.7 SSE 6 11 3 6 1014.3 1014.2 1.2
04/03:00pm 27.4 27.5 12.6 40 8.6 SE 4 7 2 4 1014.2 1014.1 1.0
04/02:30pm 27.3 26.9 12.9 41 8.4 S 7 9 4 5 1014.1 1014.0 1.0
04/02:00pm 27.1 26.2 11.2 37 9.1 S 7 15 4 8 1014.1 1014.0 0.8
04/01:30pm 26.9 26.5 12.9 42 8.2 S 7 15 4 8 1014.2 1014.1 0.8
04/01:00pm 26.9 26.7 14.6 46 7.4 SSE 9 17 5 9 1014.3 1014.2 0.8
04/12:30pm 25.8 25.2 13.6 47 7.2 SSE 9 15 5 8 1014.6 1014.5 0.6
04/12:00pm 26.4 26.0 14.2 47 7.3 S 9 17 5 9 1015.0 1014.9 0.6
04/11:30am 25.3 25.2 13.8 49 6.8 S 7 13 4 7 1015.5 1015.4 0.4
04/11:00am 25.4 24.9 13.9 49 6.8 S 9 20 5 11 1016.0 1015.9 0.4
04/10:30am 25.8 25.8 14.3 49 6.9 S 7 13 4 7 1016.4 1016.3 0.2
04/10:00am 24.2 24.2 14.3 54 5.9 S 7 11 4 6 1016.9 1016.8 0.2
04/09:30am 24.1 23.7 14.2 54 5.9 S 9 15 5 8 1017.1 1017.0 0.0
04/09:00am 21.9 24.8 18.1 79 2.4 CALM 0 6 0 3 1017.1 1017.0 5.4
04/08:30am 20.8 24.1 19.1 90 1.1 CALM 0 0 0 0 1017.2 1017.1 5.4
04/08:00am 19.6 22.8 18.9 96 0.4 CALM 0 0 0 0 1017.0 1016.9 5.2
04/07:30am 19.1 22.2 18.6 97 0.3 CALM 0 0 0 0 1016.5 1016.4 5.2
04/07:00am 18.5 21.4 18.2 98 0.2 CALM 0 0 0 0 1016.3 1016.2 5.0
04/06:30am 18.4 21.3 18.1 98 0.2 CALM 0 0 0 0 1015.4 1015.3 5.0
04/06:00am 18.5 21.3 17.9 96 0.4 CALM 0 0 0 0 1014.9 1014.8 5.0
04/05:30am 18.5 21.4 18.2 98 0.2 CALM 0 0 0 0 1014.6 1014.5 4.8
04/05:00am 18.2 20.9 17.7 97 0.3 CALM 0 4 0 2 1014.3 1014.2 4.8
04/04:30am 18.6 21.6 18.4 99 0.1 CALM 0 0 0 0 1013.9 1013.8 4.8
04/04:00am 18.8 21.9 18.6 99 0.1 CALM 0 0 0 0 1013.7 1013.6 4.6
04/03:30am 18.7 21.7 18.4 98 0.2 CALM 0 0 0 0 1013.7 1013.6 4.6
04/03:00am 18.8 21.8 18.5 98 0.2 CALM 0 2 0 1 1013.5 1013.4 4.4
04/02:30am 19.1 22.3 18.9 99 0.1 CALM 0 0 0 0 1013.4 1013.3 4.4
04/02:00am 19.1 22.3 18.8 98 0.2 CALM 0 0 0 0 1013.4 1013.3 4.4
04/01:30am 19.5 22.8 19.2 98 0.2 CALM 0 0 0 0 1013.7 1013.6 4.2
04/01:00am 19.3 22.6 19.0 98 0.2 CALM 0 0 0 0 1013.7 1013.6 4.2
04/12:30am 19.8 23.3 19.5 98 0.2 CALM 0 0 0 0 1013.7 1013.6 4.0
04/12:00am 19.9 23.3 19.4 97 0.3 CALM 0 0 0 0 1013.8 1013.7 4.0
 
Date/Time
EST
Temp
°C
App
Temp
°C
Dew
Point
Rel
Hum
%
Delta-T
°C
Wind Press
QNH
hPa
Press
MSL
hPa
Rain
since 9 am
mm
Dir
 
Spd
km/h
Gust
km/h
Spd
kts
Gust
kts
03/11:30pm 20.1 23.6 19.6 97 0.3 CALM 0 0 0 0 1013.9 1013.8 4.0
03/11:00pm 20.6 24.2 19.8 95 0.5 CALM 0 0 0 0 1013.6 1013.5 3.8
03/10:30pm 21.1 24.9 20.1 94 0.6 CALM 0 0 0 0 1013.7 1013.6 3.8
03/10:00pm 21.2 24.8 19.8 92 0.9 CALM 0 0 0 0 1013.8 1013.7 3.6
03/09:30pm 21.3 25.1 20.1 93 0.8 CALM 0 0 0 0 1013.7 1013.6 3.6
03/09:00pm 21.5 25.2 20.0 91 1.0 CALM 0 0 0 0 1013.9 1013.8 3.4
03/08:30pm 22.1 25.9 20.2 89 1.2 CALM 0 0 0 0 1013.9 1013.8 3.4
03/08:00pm 22.4 26.1 19.9 86 1.6 CALM 0 0 0 0 1013.6 1013.5 3.2
03/07:30pm 23.1 27.0 20.4 85 1.8 CALM 0 0 0 0 1013.3 1013.1 3.2
03/07:00pm 23.2 27.1 20.3 84 1.9 CALM 0 0 0 0 1012.9 1012.7 3.0
03/06:30pm 24.3 27.5 19.8 76 2.9 WSW 2 6 1 3 1012.4 1012.2 2.8
03/06:00pm 25.3 28.8 20.3 74 3.3 NNE 2 4 1 2 1011.8 1011.6 2.8
03/05:30pm 26.0 29.3 20.8 73 3.4 NNE 4 6 2 3 1011.6 1011.4 2.6
03/05:00pm 26.8 29.5 19.4 64 4.8 NNE 4 6 2 3 1011.2 1011.0 2.6
03/04:30pm 26.9 30.2 19.0 62 5.1 CALM 0 0 0 0 1011.1 1010.9 2.4
03/04:00pm 27.8 30.4 18.5 57 6.0 N 2 4 1 2 1010.7 1010.5 2.2
03/03:30pm 28.1 29.3 17.3 52 6.8 N 7 9 4 5 1010.6 1010.4 2.2
03/03:00pm 29.1 30.4 17.6 50 7.3 WNW 7 15 4 8 1010.7 1010.5 2.0
03/02:30pm 29.1 30.0 17.6 50 7.3 NW 9 13 5 7 1010.4 1010.2 1.8
03/02:00pm 28.7 30.3 18.2 53 6.7 WSW 7 17 4 9 1010.8 1010.6 1.8
03/01:30pm 28.4 30.1 18.5 55 6.4 WSW 7 15 4 8 1011.2 1011.0 1.6
03/01:00pm 27.9 30.1 18.3 56 6.1 WNW 4 11 2 6 1011.6 1011.4 1.4
03/12:30pm 26.8 28.7 18.6 60 5.2 WNW 6 11 3 6 1011.9 1011.7 1.2
03/12:00pm 26.6 28.4 19.5 65 4.6 NNW 9 17 5 9 1012.6 1012.4 1.0
03/11:30am 26.1 27.3 19.0 65 4.6 NW 11 15 6 8 1013.2 1013.0 0.8
03/11:00am 26.2 28.3 18.9 64 4.7 WNW 6 11 3 6 1013.6 1013.5 0.6
03/10:30am 25.7 27.9 19.3 67 4.1 WNW 6 11 3 6 1014.3 1014.2 0.6
03/10:00am 24.4 27.2 20.5 79 2.5 NNE 6 9 3 5 1014.5 1014.4 0.4
03/09:30am 22.6 26.4 20.9 90 1.1 SW 2 4 1 2 1014.9 1014.8 0.2
03/09:00am 21.3 24.9 20.6 96 0.5 SW 2 4 1 2 1015.1 1015.0 4.0
03/08:30am 20.4 24.3 20.4 100 0.0 CALM 0 0 0 0 1015.1 1015.0 3.8
03/08:00am 19.4 22.8 19.4 100 0.0 CALM 0 0 0 0 1015.1 1015.0 3.6
03/07:30am 19.3 22.7 19.3 100 0.0 CALM 0 0 0 0 1015.0 1014.9 3.6
03/07:00am 19.1 22.4 19.1 100 0.0 CALM 0 2 0 1 1014.8 1014.7 3.4
03/06:30am 19.1 22.4 19.1 100 0.0 CALM 0 2 0 1 1014.5 1014.4 3.2
03/06:00am 19.1 22.4 19.1 100 0.0 CALM 0 0 0 0 1013.9 1013.8 3.0
03/05:30am 19.3 22.7 19.3 100 0.0 CALM 0 6 0 3 1013.8 1013.7 2.8
03/05:00am 19.2 22.5 19.0 99 0.1 CALM 0 0 0 0 1013.9 1013.8 2.8
03/04:30am 19.3 22.6 19.1 99 0.1 CALM 0 0 0 0 1013.7 1013.6 2.6
03/04:00am 19.3 22.6 19.1 99 0.1 CALM 0 0 0 0 1013.4 1013.3 2.4
03/03:30am 19.2 22.5 19.0 99 0.1 CALM 0 0 0 0 1013.3 1013.1 2.2
03/03:00am 19.4 22.7 19.2 99 0.1 CALM 0 0 0 0 1013.8 1013.7 2.0
03/02:30am 19.4 22.7 19.2 99 0.1 CALM 0 0 0 0 1013.8 1013.7 1.8
03/02:00am 19.4 22.0 19.2 99 0.1 N 4 7 2 4 1014.1 1014.0 1.6
03/01:30am 19.7 22.8 19.5 99 0.1 N 2 6 1 3 1015.1 1015.0 1.4
03/01:00am 19.6 21.8 19.3 98 0.2 WNW 6 11 3 6 1015.8 1015.7 1.2
03/12:30am 19.5 21.2 18.5 94 0.6 WSW 7 15 4 8 1015.9 1015.8 1.0
03/12:00am 21.6 24.7 21.4 99 0.1 SW 7 20 4 11 1016.3 1016.2 0.8
 
Date/Time
EST
Temp
°C
App
Temp
°C
Dew
Point
Rel
Hum
%
Delta-T
°C
Wind Press
QNH
hPa
Press
MSL
hPa
Rain
since 9 am
mm
Dir
 
Spd
km/h
Gust
km/h
Spd
kts
Gust
kts
02/11:30pm 21.7 26.1 21.4 98 0.2 CALM 0 0 0 0 1015.3 1015.2 0.6
02/11:00pm 21.7 26.1 21.4 98 0.2 CALM 0 0 0 0 1015.6 1015.5 0.4
02/10:30pm 21.7 26.0 21.2 97 0.3 CALM 0 2 0 1 1016.1 1016.0 0.4
02/10:00pm 21.5 24.8 20.7 95 0.5 WSW 4 7 2 4 1016.3 1016.2 0.0
02/09:30pm 21.8 25.4 20.6 93 0.8 NNW 2 4 1 2 1016.1 1016.0 0.0
02/09:00pm 21.6 25.5 20.4 93 0.8 CALM 0 0 0 0 1015.9 1015.8 0.0
02/08:30pm 21.8 25.3 20.4 92 0.9 NNW 2 4 1 2 1016.0 1015.9 0.0
02/08:00pm 21.7 25.4 20.0 90 1.1 CALM 0 0 0 0 1015.5 1015.4 0.0
02/07:30pm 22.0 25.7 19.9 88 1.3 CALM 0 0 0 0 1015.3 1015.2 0.0
02/07:00pm 22.5 25.8 20.0 86 1.6 ESE 2 4 1 2 1015.2 1015.1 0.0
02/06:30pm 23.1 26.1 20.1 83 1.9 ESE 4 6 2 3 1015.1 1015.0 0.0
02/06:00pm 23.4 26.3 19.8 80 2.3 ESE 4 7 2 4 1014.7 1014.6 0.0
02/05:30pm 23.8 26.4 19.3 76 2.9 E 4 7 2 4 1014.3 1014.2 0.0
02/05:00pm 24.7 27.7 20.0 75 3.0 E 4 11 2 6 1014.0 1013.9 0.0
02/04:30pm 25.8 28.4 20.1 71 3.7 ENE 6 15 3 8 1013.9 1013.8 0.0
02/04:00pm 26.1 28.5 20.0 69 4.0 NE 7 13 4 7 1013.6 1013.5 0.0
02/03:30pm 26.6 28.4 20.4 69 4.1 E 11 17 6 9 1013.0 1012.8 0.0
02/03:00pm 27.4 29.9 20.2 65 4.7 ENE 7 13 4 7 1012.9 1012.7 0.0
02/02:30pm 27.6 30.4 20.4 65 4.7 NE 6 11 3 6 1013.1 1012.9 0.0
02/02:00pm 28.5 31.0 20.2 60 5.5 NNE 7 13 4 7 1013.3 1013.1 0.0
02/01:30pm 28.7 31.6 20.7 62 5.3 ENE 6 11 3 6 1013.8 1013.7 0.0

Other Formats:

Comma delimited format used in spreadsheet applications
http://www.bom.gov.au/fwo/IDQ60801/IDQ60801.94566.axf

JavaScript Object Notation format (JSON) in row-major order
http://www.bom.gov.au/fwo/IDQ60801/IDQ60801.94566.json